CDT,Max TemperatureF,Mean TemperatureF,Min TemperatureF,Max Dew PointF,MeanDew PointF,Min DewpointF,Max Humidity, Mean Humidity, Min Humidity, Max Sea Level PressureIn, Mean Sea Level PressureIn, Min Sea Level PressureIn, Max VisibilityMiles, Mean VisibilityMiles, Min VisibilityMiles, Max Wind SpeedMPH, Mean Wind SpeedMPH, Max Gust SpeedMPH,PrecipitationIn, CloudCover, Events, WindDirDegrees
2014-3-1,65,54,42,48,42,36,82,65,48,30.16,30.09,30.05,10,10,10,7,2,10,0.00,8,,143
2014-3-2,61,46,31,54,35,28,92,82,72,30.16,30.08,30.00,10,4,1,22,12,28,2.75,8,Rain-Snow-Thunderstorm,18
2014-3-3,30,23,15,28,16,12,92,85,77,30.40,30.33,30.00,10,5,1,24,6,29,0.39,7,Rain-Snow,7
2014-3-4,31,23,14,29,22,12,92,85,77,30.34,30.23,30.17,10,8,4,10,3,13,0.70,6,,35
2014-3-5,34,31,27,32,30,26,100,93,85,30.23,30.18,30.13,6,2,0,13,5,16,0.86,7,Fog,48
2014-3-6,45,36,27,34,30,25,92,77,62,30.17,30.11,30.07,10,8,4,13,5,16,0.00,3,,27
2014-3-7,58,41,23,39,31,21,92,70,47,30.09,30.04,30.00,10,8,2,14,2,17,0.00,0,,330
2014-3-8,65,48,30,45,38,28,96,70,44,30.23,30.13,30.04,10,8,4,17,7,23,0.00,2,,299
2014-3-9,53,45,37,38,35,32,85,69,52,30.32,30.23,30.14,10,8,3,16,6,18,0.00,6,,332
2014-3-10,68,52,35,46,39,33,92,64,35,30.15,30.02,29.88,10,8,2,17,9,23,0.00,0,,219
2014-3-11,78,63,48,57,51,45,93,67,40,29.86,29.73,29.58,10,10,10,18,11,25,0.00,2,,203
2014-3-12,65,47,29,58,36,21,84,59,34,30.16,29.88,29.53,10,10,10,32,16,41,T,6,,310
2014-3-13,61,42,25,30,25,22,88,56,27,30.28,30.19,30.12,10,10,10,8,3,,0.00,0,,207
2014-3-14,68,56,44,39,31,28,65,46,26,30.14,30.09,30.03,10,10,10,29,12,36,T,1,,203
2014-3-15,69,54,39,47,42,35,85,64,42,30.10,30.01,29.89,10,10,10,12,4,15,T,3,,168
2014-3-16,59,47,35,52,47,32,93,89,85,29.88,29.72,29.65,10,4,1,26,12,35,0.85,8,Rain-Snow,59
2014-3-17,50,40,29,33,29,24,89,71,53,29.91,29.85,29.80,10,10,8,22,8,26,0.03,5,,5
2014-3-18,59,43,27,41,35,27,92,70,47,29.96,29.87,29.76,10,9,3,18,7,26,0.00,3,,162
2014-3-19,62,48,34,48,41,34,80,61,42,30.16,29.98,29.85,10,10,10,23,11,28,0.00,3,,247
2014-3-20,64,47,29,36,29,24,92,58,23,30.22,30.14,30.07,10,10,5,10,3,14,0.00,0,,244
2014-3-21,70,50,29,37,31,26,92,57,22,30.09,30.01,29.91,10,10,10,17,6,22,0.00,0,,196
2014-3-22,67,56,44,41,36,31,71,53,34,30.17,30.05,29.93,10,10,10,20,10,23,0.08,4,Rain,16
2014-3-23,53,43,32,38,29,21,85,59,32,30.33,30.26,30.15,10,10,9,22,13,26,0.04,3,Rain,10
2014-3-24,55,41,27,22,18,13,69,44,19,30.33,30.22,30.08,10,10,10,16,7,20,0.00,2,,28
2014-3-25,48,36,23,28,20,13,70,49,27,30.28,30.21,30.10,10,10,10,28,12,33,0.00,5,,334
2014-3-26,55,38,20,20,16,11,81,50,19,30.43,30.29,30.17,10,10,10,12,4,17,0.00,0,,125
2014-3-27,68,57,46,53,40,20,78,55,31,30.15,29.94,29.82,10,9,2,23,12,32,0.44,7,Rain-Thunderstorm,166
2014-3-28,72,65,57,61,58,54,90,76,61,29.98,29.92,29.85,10,10,4,20,7,28,0.53,7,Rain-Thunderstorm,180
2014-3-29,60,48,36,59,48,33,96,81,65,30.27,30.00,29.85,10,6,0,23,13,29,0.73,7,Fog-Rain,350
2014-3-30,62,45,27,37,32,25,92,62,32,30.31,30.24,30.14,10,7,2,9,1,14,0.00,0,Rain,338
2014-3-31,76,55,34,39,34,30,92,56,20,30.15,30.06,29.94,10,10,9,15,7,23,T,1,,183